METAR stanice u blizini

 

LYNI - Nis, Yugoslavia
Distance from station: JZ 40km
Ažurirano: 31/10/2020 05:00
Pretežno oblačno
Pretežno oblačno
 Pravac vetra varies
Vetar: varies 4 km/h
Temperatura: 7°C
Tačka rose: 5°C
Vlažnost: 87%
Pritisak: 1023 hPa
Oblaci: Pretežno oblačno
Vidljivost: 10 km
Cloud details: Few Clouds 701 m
Pretežno oblačno 1128 m
2020/10/31 04:00 LYNI 310400Z VRB02KT 9999 FEW023 BKN037 07/05 Q1023 NOSIG
LYKV - Kraljevo, Yugoslavia
Distance from station: ZSZ 136km
Ažurirano: 31/10/2020 05:00
Delimično oblačno
Delimično oblačno
 Pravac vetra varies
Vetar: varies 4 km/h
Temperatura: 9°C
Tačka rose: 9°C
Vlažnost: 100%
Pritisak: 1023 hPa
Oblaci: Delimično oblačno
Vidljivost: 10 km
Cloud details: Delimično oblačno 1311 m
2020/10/31 04:00 LYKV 310400Z VRB02KT 9999 SCT043 09/09 Q1023 NOSIG
LBSF - Sofia (observato, Bulgaria
Distance from station: JI 138km
Ažurirano: 31/10/2020 05:00
Oblačno
Oblačno
 Pravac vetra SZ
Vetar: SZ 11 km/h
Temperatura: 8°C
Osećaj hladnoće: 6°C
Tačka rose: 4°C
Vlažnost: 76%
Pritisak: 1021 hPa
Oblaci: Oblačno
Vidljivost: 10 km
Cloud details: Oblačno 1585 m
2020/10/31 04:00 LBSF 310400Z 32006KT 290V360 9999 OVC052 08/04 Q1021 NOSIG
 
BKPR - Prishtina, Yugoslavia
Distance from station: JZ 147km
Ažurirano: 31/10/2020 05:00
Pretežno oblačno
Pretežno oblačno
 Pravac vetra calm
Vetar: Tišina
Temperatura: 5°C
Tačka rose: 2°C
Vlažnost: 81%
Pritisak: 1023 hPa
Oblaci: Pretežno oblačno
Vidljivost: 10 km
Cloud details: Few Clouds 914 m
Pretežno oblačno 1829 m
2020/10/31 04:00 BKPR 310400Z 00000KT 9999 FEW030 BKN060 05/02 Q1023 NOSIG
LRCV - Craiova, Romania
Distance from station: SI 154km
Ažurirano: 31/10/2020 05:00
Vedro
Vedro
 Pravac vetra Z
Vetar: Z 9 km/h
Temperatura: 6°C
Osećaj hladnoće: 4°C
Tačka rose: 4°C
Vlažnost: 87%
Pritisak: 1018 hPa
Pregled: Vedro
Vidljivost: greater than 10 km
2020/10/31 04:00 LRCV 310400Z 26005KT CAVOK 06/04 Q1018
LWSK - Skopje/Petrovac, Macedonia
Distance from station: JJZ 185km
Ažurirano: 31/10/2020 05:00
Few Clouds
Few Clouds
 Pravac vetra SI
Vetar: SI 4 km/h
Temperatura: 4°C
Tačka rose: 4°C
Vlažnost: 100%
Pritisak: 1024 hPa
Oblaci: Few Clouds
Vidljivost: 10 km
Cloud details: Few Clouds 1829 m
2020/10/31 04:00 LWSK 310400Z 04002KT 9999 FEW060 04/04 Q1024 NOSIG
 
LYVR - Vrsac, Yugoslavia
Distance from station: SSZ 189km
Ažurirano: 31/10/2020 05:00
Slaba kiša, Showers, Oblačno
Slaba kiša, Showers, Oblačno
 Pravac vetra J
Vetar: J 9 km/h
Temperatura: 11°C
Tačka rose: 8°C
Vlažnost: 82%
Pritisak: 1021 hPa
Pregled: Slaba kiša, Showers
Oblaci: Oblačno
Vidljivost: 10 km
Cloud details: Few Clouds 549 m
Pretežno oblačno 1097 m
Oblačno 1280 m
2020/10/31 04:00 LYVR 310400Z AUTO 17005KT 150V210 9999 -SHRA FEW018/// BKN036/// OVC042/// 11/08 Q1021
LYUZ - Uzice-Ponikve, Yugoslavia
Distance from station: Z 207km
Ažurirano: 31/10/2020 05:00
Oblačno
Oblačno
 Pravac vetra varies
Vetar: varies 4 km/h
Temperatura: 8°C
Tačka rose: 5°C
Vlažnost: 82%
Pritisak: 1023 hPa
Oblaci: Oblačno
Vidljivost: 10 km
Cloud details: Oblačno 1280 m
2020/10/31 04:00 LYUZ 310400Z AUTO VRB02KT 9999 OVC042/// 08/05 Q1023
LYBE - Belgrade/Surcin, Yugoslavia
Distance from station: SZ 209km
Ažurirano: 31/10/2020 05:00
Vedro
Vedro
 Pravac vetra ZJZ
Vetar: ZJZ 11 km/h
Temperatura: 11°C
Tačka rose: 9°C
Vlažnost: 88%
Pritisak: 1022 hPa
Pregled: Vedro
Vidljivost: greater than 10 km
2020/10/31 04:00 LYBE 310400Z 24006KT 200V260 CAVOK 11/09 Q1022 NOSIG
 
LYBT - Batajnica, Yugoslavia
Distance from station: SZ 219km
Ažurirano: 31/10/2020 05:00
Vedro
Vedro
 Pravac vetra JZ
Vetar: JZ 9 km/h
Temperatura: 10°C
Osećaj hladnoće: 9°C
Tačka rose: 10°C
Vlažnost: 100%
Pritisak: 1022 hPa
Pregled: Vedro
Vidljivost: greater than 10 km
2020/10/31 04:00 LYBT 310400Z 22005KT 200V280 CAVOK 10/10 Q1022 NOSIG
LRTR - Timisoara/Giarma, Romania
Distance from station: SSZ 260km
Ažurirano: 31/10/2020 05:00
Slaba kiša, Pretežno oblačno
Slaba kiša, Pretežno oblačno
 Pravac vetra ZJZ
Vetar: ZJZ 19 km/h
Temperatura: 11°C
Tačka rose: 11°C
Vlažnost: 100%
Pritisak: 1019 hPa
Pregled: Slaba kiša
Oblaci: Pretežno oblačno
Vidljivost: 8 km
Cloud details: Pretežno oblačno 762 m
2020/10/31 04:00 LRTR 310400Z 24010KT 8000 -RA BKN025 11/11 Q1019 NOSIG
LBPD - Plovdiv, Bulgaria
Distance from station: JI 263km
Ažurirano: 31/10/2020 05:00
Vedro
Vedro
 Pravac vetra SZ
Vetar: SZ 13 km/h
Temperatura: 9°C
Osećaj hladnoće: 7°C
Tačka rose: 3°C
Vlažnost: 66%
Pritisak: 1020 hPa
Oblaci: Vedro
Vidljivost: 10 km
2020/10/31 04:00 LBPD 310400Z AUTO 31007KT 290V010 9999 NCD 09/03 Q1020 NOSIG
 
LYPG - Podgorica(Titogr, Yugoslavia
Distance from station: ZJZ 278km
Ažurirano: 31/10/2020 05:00
Vedro
Vedro
 Pravac vetra varies
Vetar: varies 2 km/h
Temperatura: 8°C
Tačka rose: 6°C
Vlažnost: 87%
Pritisak: 1023 hPa
Pregled: Vedro
Vidljivost: greater than 10 km
2020/10/31 04:00 LYPG 310400Z VRB01KT CAVOK 08/06 Q1023 NOSIG
LBGO - Gorna Orechovist, Bulgaria
Distance from station: I 285km
Ažurirano: 31/10/2020 05:00
Vedro
Vedro
 Pravac vetra JI
Vetar: JI 7 km/h
Temperatura: 2°C
Osećaj hladnoće: 0°C
Tačka rose: 2°C
Vlažnost: 100%
Pritisak: 1020 hPa
Oblaci: Vedro
Vidljivost: 10 km
2020/10/31 04:00 LBGO 310400Z AUTO 13004KT 9999 NCD 02/02 Q1020 NOSIG
LRSB - Sibiu/Turnisor, Romania
Distance from station: SSI 286km
Ažurirano: 31/10/2020 05:00
Pretežno oblačno
Pretežno oblačno
 Pravac vetra IJI
Vetar: IJI 6 km/h
Temperatura: 5°C
Tačka rose: 5°C
Vlažnost: 100%
Pritisak: 1017 hPa
Oblaci: Pretežno oblačno
Vidljivost: 10 km
Cloud details: Pretežno oblačno 914 m
Pretežno oblačno 1524 m
2020/10/31 04:00 LRSB 310400Z 12003KT 100V180 9999 BKN030 BKN050 05/05 Q1017 R27/29//95
 
LWOH - Ohrid, Macedonia
Distance from station: JJZ 292km
Ažurirano: 30/10/2020 16:00
NOT Current
Few Clouds
Few Clouds
 Pravac vetra ZSZ
Vetar: ZSZ 11 km/h
Temperatura: 15°C
Tačka rose: 3°C
Vlažnost: 45%
Pritisak: 1021 hPa
Oblaci: Few Clouds
Vidljivost: 10 km
Cloud details: Few Clouds 1219 m
2020/10/30 15:00 LWOH 301500Z 30006KT 9999 FEW040 15/03 Q1021
LQTZ - Tuzla, Yugoslavia
Distance from station: ZSZ 298km
Ažurirano: 31/10/2020 05:00
Delimično oblačno
Delimično oblačno
 Pravac vetra varies
Vetar: varies 2 km/h
Temperatura: 7°C
Tačka rose: 6°C
Vlažnost: 93%
Pritisak: 1023 hPa
Oblaci: Delimično oblačno
Vidljivost: 10 km
Cloud details: Delimično oblačno 1219 m
2020/10/31 04:00 LQTZ 310400Z VRB01KT 9999 SCT040 07/06 Q1023
LRAR - Arad, Romania
Distance from station: SSZ 301km
Ažurirano: 31/10/2020 05:00
Slaba kiša, Oblačno
Slaba kiša, Oblačno
 Pravac vetra ZJZ
Vetar: ZJZ 17 km/h
Temperatura: 12°C
Tačka rose: 12°C
Vlažnost: 100%
Pritisak: 1019 hPa
Pregled: Slaba kiša
Oblaci: Oblačno
Vidljivost: 8 km
Cloud details: Few Clouds 213 m
Delimično oblačno 305 m
Oblačno 732 m
2020/10/31 04:00 LRAR 310400Z 25009KT 8000 -RA FEW007 SCT010 OVC024 12/12 Q1019 R09/19//95
 
LYTV - Tivat, Yugoslavia
Distance from station: ZJZ 315km
Ažurirano: 31/10/2020 05:00
Vedro
Vedro
 Pravac vetra varies
Vetar: varies 6 km/h
Temperatura: 8°C
Tačka rose: 7°C
Vlažnost: 93%
Pritisak: 1021 hPa
Pregled: Vedro
Vidljivost: greater than 10 km
2020/10/31 04:00 LYTV 310400Z VRB03KT CAVOK 08/07 Q1021
LATI - Tirana, Albania
Distance from station: JZ 316km
Ažurirano: 31/10/2020 04:50
Vedro
Vedro
 Pravac vetra varies
Vetar: varies 6 km/h
Temperatura: 8°C
Tačka rose: 6°C
Vlažnost: 87%
Pritisak: 1022 hPa
Pregled: Vedro
Vidljivost: greater than 10 km
2020/10/31 03:50 LATI 310350Z VRB03KT CAVOK 08/06 Q1022 NOSIG
LQBK - Banja Luka, Yugoslavia
Distance from station: SZ 426km
Ažurirano: 31/10/2020 05:00
Mist, Delimično oblačno
Mist, Delimično oblačno
 Pravac vetra J
Vetar: J 9 km/h
Temperatura: 7°C
Osećaj hladnoće: 6°C
Tačka rose: 7°C
Vlažnost: 100%
Pritisak: 1023 hPa
Pregled: Mist
Oblaci: Delimično oblačno
Vidljivost: 4 km
2020/10/31 04:00 LQBK 310400Z 17005KT 4000 BR NSC 07/07 Q1023 NOSIG
 
LDOS - Osijek, Croatia
Distance from station: SSZ 360km
Ažurirano: 31/10/2020 05:00
Few Clouds
Few Clouds
 Pravac vetra ZJZ
Vetar: ZJZ 6 km/h
Temperatura: 11°C
Tačka rose: 10°C
Vlažnost: 94%
Pritisak: 1022 hPa
Oblaci: Few Clouds
Vidljivost: 10 km
Cloud details: Few Clouds 1433 m
2020/10/31 04:00 LDOS 310400Z 25003KT 9999 FEW047 11/10 Q1022
LDDU - Dubrovnik-Cilipi, Croatia
Distance from station: JZ 352km
Ažurirano: 31/10/2020 05:00
Vedro
Vedro
 Pravac vetra varies
Vetar: varies 6 km/h
Temperatura: 17°C
Tačka rose: 4°C
Vlažnost: 42%
Pritisak: 1022 hPa
Pregled: Vedro
Vidljivost: greater than 10 km
2020/10/31 04:00 LDDU 310400Z VRB03KT CAVOK 17/04 Q1022 TEMPO VRB15G25KT
LQMO - Mostar Airport, Bosnia-Herzegovina
Distance from station: Z 359km
Ažurirano: 31/10/2020 05:00
Few Clouds
Few Clouds
 Pravac vetra varies
Vetar: varies 4 km/h
Temperatura: 5°C
Tačka rose: 4°C
Vlažnost: 93%
Pritisak: 1022 hPa
Oblaci: Few Clouds
Vidljivost: 10 km
Cloud details: Few Clouds 152 m
2020/10/31 04:00 LQMO 310400Z VRB02KT 9999 FEW005 05/04 Q1022
 
LQSA - Sarajevo/Butmir, Yugoslavia
Distance from station: Z 311km
Ažurirano: 31/10/2020 05:00
Vedro
Vedro
 Pravac vetra varies
Vetar: varies 4 km/h
Temperatura: 4°C
Tačka rose: 4°C
Vlažnost: 100%
Pritisak: 1024 hPa
Pregled: Vedro
Vidljivost: greater than 10 km
2020/10/31 04:00 LQSA 310400Z VRB02KT CAVOK 04/04 Q1024
LDSP - Split/Kastel Sta, Croatia
Distance from station: Z 468km
Ažurirano: 31/10/2020 05:00
Vedro
Vedro
 Pravac vetra S
Vetar: S 6 km/h
Temperatura: 13°C
Tačka rose: 9°C
Vlažnost: 77%
Pritisak: 1023 hPa
Pregled: Vedro
Vidljivost: greater than 10 km
2020/10/31 04:00 LDSP 310400Z AUTO 36003KT 330V070 CAVOK 13/09 Q1023 NOSIG
LDZD - Zadar/Zemunik, Croatia
Distance from station: ZSZ 567km
Ažurirano: 31/10/2020 05:00
Magla, Delimično oblačno
Magla, Delimično oblačno
 Pravac vetra JI
Vetar: JI 6 km/h
Temperatura: 6°C
Tačka rose: 6°C
Vlažnost: 100%
Pritisak: 1023 hPa
Pregled: Magla
Oblaci: Delimično oblačno
Vidljivost: 0 km
2020/10/31 04:00 LDZD 310400Z 13003KT 0200 R13/0700N FG NSC 06/06 Q1023 NOSIG
 
LDZA - Zagreb/Pleso, Croatia
Distance from station: SZ 555km
Ažurirano: 31/10/2020 05:00
Mist, Delimično oblačno
Mist, Delimično oblačno
 Pravac vetra JJZ
Vetar: JJZ 4 km/h
Temperatura: 11°C
Tačka rose: 10°C
Vlažnost: 94%
Pritisak: 1022 hPa
Pregled: Mist
Oblaci: Delimično oblačno
Vidljivost: 5 km
2020/10/31 04:00 LDZA 310400Z 21002KT 5000 BR NSC 11/10 Q1022 TEMPO 3000
LJCE - Cerklje, Slovenia
Distance from station: SZ 680km
Ažurirano: 31/10/2020 05:00
Delimično oblačno
Delimično oblačno
 Pravac vetra calm
Vetar: Tišina
Temperatura: 8°C
Tačka rose: 8°C
Vlažnost: 100%
Pritisak: 1023 hPa
Oblaci: Delimično oblačno
Vidljivost: 9 km
2020/10/31 04:00 LJCE 310400Z AUTO 00000KT 9000 NSC 08/08 Q1023
LJMB - Maribor, Slovenia
Distance from station: SZ 616km
Ažurirano: 31/10/2020 05:00
Delimično oblačno
Delimično oblačno
 Pravac vetra calm
Vetar: Tišina
Temperatura: 8°C
Tačka rose: 8°C
Vlažnost: 100%
Pritisak: 1022 hPa
Oblaci: Delimično oblačno
Vidljivost: 8 km
2020/10/31 04:00 LJMB 310400Z AUTO 00000KT 8000 NSC 08/08 Q1022
 
LJLJ - Ljubljana/Brnik, Slovenia
Distance from station: SZ 671km
Ažurirano: 31/10/2020 05:00
Shallow fog, Delimično oblačno
Shallow fog, Delimično oblačno
 Pravac vetra varies
Vetar: varies 2 km/h
Temperatura: 5°C
Tačka rose: 5°C
Vlažnost: 100%
Pritisak: 1023 hPa
Pregled: Shallow Fog
Oblaci: Delimično oblačno
2020/10/31 04:00 LJLJ 310400Z VRB01KT MIFG NSC 05/05 Q1023 NOSIG
LDRI - Rijeka, Croatia
Distance from station: SZ 650km
Ažurirano: 31/10/2020 05:00
Vedro
Vedro
 Pravac vetra JI
Vetar: JI 4 km/h
Temperatura: 9°C
Tačka rose: 8°C
Vlažnost: 94%
Pritisak: 1023 hPa
Pregled: Vedro
Vidljivost: greater than 10 km
2020/10/31 04:00 LDRI 310400Z 13002KT CAVOK 09/08 Q1023
LDPL - Pula, Croatia
Distance from station: ZSZ 686km
Ažurirano: 31/10/2020 05:00
Vedro
Vedro
 Pravac vetra varies
Vetar: varies 4 km/h
Temperatura: 8°C
Tačka rose: 7°C
Vlažnost: 93%
Pritisak: 1023 hPa
Pregled: Vedro
Vidljivost: greater than 10 km
2020/10/31 04:00 LDPL 310400Z VRB02KT CAVOK 08/07 Q1023 NOSIG
 
LJPZ - Portorož, Slovenia
Distance from station: ZSZ 720km
Ažurirano: 31/10/2020 05:00
Vedro
Vedro
 Pravac vetra IJI
Vetar: IJI 11 km/h
Temperatura: 8°C
Osećaj hladnoće: 6°C
Tačka rose: 7°C
Vlažnost: 93%
Pritisak: 1024 hPa
Oblaci: Vedro
Vidljivost: 10 km
2020/10/31 04:00 LJPZ 310400Z AUTO 12006KT 9999 NCD 08/07 Q1024